Time;durP1;ratioP1;P1;durP2;ratioP2;P2;SDS_P1;SDS_P2;PMS_P1;PMS_P2;Temp;Humidity;BMP_temperature;BMP_pressure;BME280_temperature;BME280_humidity;BME280_pressure;Samples;Min_cycle;Max_cycle;Signal;HPM_P1;HPM_P2
2022/05/16 00:00:03;;;;;;;355.47;206.70;;;;;;;20.59;75.73;99899.13;340893;29;1194;-74
2022/05/16 00:00:17;;;;;;;354.83;205.52;;;;;;;20.59;75.61;99898.25;339793;29;826;-74
2022/05/16 00:00:28;;;;;;;353.92;206.20;;;;;;;20.60;75.86;99899.97;335913;29;1338;-74
2022/05/16 00:00:38;;;;;;;357.00;208.50;;;;;;;20.62;75.57;99900.69;338477;29;808;-74
2022/05/16 00:00:49;;;;;;;359.45;209.13;;;;;;;20.62;75.69;99898.03;339746;29;1230;-74
2022/05/16 00:00:59;;;;;;;359.77;208.37;;;;;;;20.62;75.63;99906.00;338728;29;1651;-74
2022/05/16 00:01:10;;;;;;;357.80;206.93;;;;;;;20.63;75.73;99901.53;337204;29;761;-74
2022/05/16 00:01:20;;;;;;;355.58;203.27;;;;;;;20.62;75.70;99903.34;339707;29;1252;-74
2022/05/16 00:01:31;;;;;;;355.43;202.80;;;;;;;20.62;75.86;99897.19;339768;29;930;-74
2022/05/16 00:01:41;;;;;;;357.83;204.20;;;;;;;20.63;75.88;99899.72;339475;29;2383;-74
2022/05/16 00:01:51;;;;;;;360.63;208.63;;;;;;;20.62;75.68;99902.50;338388;29;3541;-74
2022/05/16 00:02:03;;;;;;;361.63;211.35;;;;;;;20.61;75.36;99893.69;334676;29;5854;-74
2022/05/16 00:02:14;;;;;;;358.65;209.95;;;;;;;20.62;75.68;99900.69;336557;29;3138;-74
2022/05/16 00:02:24;;;;;;;360.33;211.23;;;;;;;20.59;75.62;99903.59;337837;29;1956;-74
2022/05/16 00:02:35;;;;;;;360.55;210.60;;;;;;;20.59;75.08;99898.25;335571;29;6033;-74
2022/05/16 00:02:45;;;;;;;361.00;209.83;;;;;;;20.60;75.89;99902.63;339764;29;845;-74
2022/05/16 00:02:56;;;;;;;358.15;208.95;;;;;;;20.58;75.34;99899.22;339648;29;1292;-75
2022/05/16 00:03:07;;;;;;;357.90;208.93;;;;;;;20.58;75.44;99902.75;336041;29;1505;-73
2022/05/16 00:03:17;;;;;;;357.93;209.23;;;;;;;20.59;75.54;99901.78;338439;29;901;-73
2022/05/16 00:03:28;;;;;;;356.20;205.65;;;;;;;20.59;75.51;99898.25;339590;29;1611;-73
2022/05/16 00:03:38;;;;;;;354.50;206.03;;;;;;;20.60;75.77;99905.28;337548;29;832;-73
2022/05/16 00:03:48;;;;;;;353.63;204.95;;;;;;;20.61;75.58;99896.34;334553;29;1792;-73
2022/05/16 00:03:59;;;;;;;355.87;206.97;;;;;;;20.61;75.38;99900.81;335931;29;861;-73
2022/05/16 00:04:09;;;;;;;356.10;205.35;;;;;;;20.57;75.59;99900.19;339703;29;1414;-73
2022/05/16 00:04:20;;;;;;;356.60;205.57;;;;;;;20.56;75.50;99893.19;339762;29;894;-74
2022/05/16 00:04:30;;;;;;;355.38;205.05;;;;;;;20.53;75.39;99898.75;339278;29;1231;-74
2022/05/16 00:04:43;;;;;;;357.70;207.30;;;;;;;20.50;75.97;99898.97;335966;29;1010;-74
2022/05/16 00:04:53;;;;;;;357.35;208.35;;;;;;;20.49;75.76;99897.28;335715;29;1282;-74
2022/05/16 00:05:04;;;;;;;358.17;208.03;;;;;;;20.48;75.75;99896.44;340979;29;1321;-74
2022/05/16 00:05:15;;;;;;;356.20;208.20;;;;;;;20.49;75.65;99907.91;339716;29;1955;-74
2022/05/16 00:05:25;;;;;;;356.73;207.32;;;;;;;20.48;75.73;99895.59;335633;29;1717;-74
2022/05/16 00:05:36;;;;;;;357.57;209.47;;;;;;;20.48;75.71;99900.91;335910;29;917;-74
2022/05/16 00:05:46;;;;;;;356.92;208.32;;;;;;;20.50;75.86;99893.66;337023;29;901;-75
2022/05/16 00:05:57;;;;;;;354.73;205.73;;;;;;;20.50;75.94;99904.28;337172;29;1293;-74
2022/05/16 00:06:07;;;;;;;355.33;206.23;;;;;;;20.51;75.80;99895.34;339776;29;1287;-74
2022/05/16 00:06:18;;;;;;;357.40;206.00;;;;;;;20.53;75.59;99901.41;339744;29;865;-74
2022/05/16 00:06:29;;;;;;;358.63;208.57;;;;;;;20.51;75.54;99896.19;337043;29;2528;-74
2022/05/16 00:06:39;;;;;;;360.35;208.15;;;;;;;20.54;75.58;99900.44;336252;29;2086;-74
2022/05/16 00:06:49;;;;;;;358.90;207.30;;;;;;;20.53;75.63;99896.09;338347;29;1532;-74
2022/05/16 00:07:00;;;;;;;357.83;204.57;;;;;;;20.51;75.74;99906.00;338242;29;1320;-74
2022/05/16 00:07:10;;;;;;;354.67;201.60;;;;;;;20.47;75.48;99899.22;336970;29;1536;-74
2022/05/16 00:07:21;;;;;;;357.02;203.93;;;;;;;20.48;75.67;99898.25;339775;29;1313;-74
2022/05/16 00:07:31;;;;;;;359.77;206.00;;;;;;;20.48;75.76;99900.91;337102;29;1179;-74
2022/05/16 00:07:42;;;;;;;361.08;207.98;;;;;;;20.47;75.90;99893.91;335918;29;866;-74
2022/05/16 00:07:53;;;;;;;359.70;206.87;;;;;;;20.44;75.44;99904.75;334630;29;1289;-74
2022/05/16 00:08:04;;;;;;;358.13;207.98;;;;;;;20.44;75.85;99899.44;337243;29;1131;-74
2022/05/16 00:08:14;;;;;;;358.45;207.23;;;;;;;20.41;76.02;99899.69;339872;29;855;-74
2022/05/16 00:08:25;;;;;;;356.97;205.43;;;;;;;20.40;76.08;99900.66;335725;29;1916;-74
2022/05/16 00:08:35;;;;;;;357.42;206.48;;;;;;;20.40;76.12;99897.97;340716;28;1355;-74
2022/05/16 00:08:45;;;;;;;358.63;208.87;;;;;;;20.42;75.84;99904.88;339768;29;863;-74
2022/05/16 00:08:57;;;;;;;358.55;210.10;;;;;;;20.40;75.69;99903.31;341065;29;851;-74
2022/05/16 00:09:07;;;;;;;358.40;209.57;;;;;;;20.37;76.23;99903.50;337222;29;1459;-73
2022/05/16 00:09:18;;;;;;;359.30;210.02;;;;;;;20.35;76.12;99905.47;336989;29;1194;-74
2022/05/16 00:09:28;;;;;;;360.43;210.90;;;;;;;20.34;76.25;99904.63;337247;29;1386;-74
2022/05/16 00:09:39;;;;;;;362.05;212.63;;;;;;;20.32;76.25;99900.38;339794;29;1217;-74
2022/05/16 00:09:49;;;;;;;359.77;207.93;;;;;;;20.32;76.28;99901.22;339751;29;1201;-74
2022/05/16 00:10:00;;;;;;;359.58;207.15;;;;;;;20.31;76.25;99904.00;341043;29;1007;-74
2022/05/16 00:10:10;;;;;;;356.05;203.00;;;;;;;20.33;76.14;99904.72;337095;29;873;-74
2022/05/16 00:10:21;;;;;;;358.90;206.67;;;;;;;20.34;76.32;99909.94;333398;29;1308;-74
2022/05/16 00:10:31;;;;;;;359.00;205.90;;;;;;;20.35;76.09;99902.81;335906;29;910;-74
2022/05/16 00:10:42;;;;;;;358.27;205.23;;;;;;;20.35;76.25;99905.47;338593;29;890;-74
2022/05/16 00:10:52;;;;;;;358.83;207.27;;;;;;;20.37;76.00;99903.50;338522;29;944;-74
2022/05/16 00:11:03;;;;;;;360.50;208.63;;;;;;;20.35;76.00;99897.50;337972;29;3946;-73
2022/05/16 00:11:13;;;;;;;365.67;215.77;;;;;;;20.36;76.05;99907.16;334890;29;5812;-73
2022/05/16 00:11:23;;;;;;;364.25;214.02;;;;;;;20.36;76.08;99907.16;334912;29;5753;-74
2022/05/16 00:11:34;;;;;;;367.00;215.10;;;;;;;20.35;75.97;99905.47;341027;29;1236;-74
2022/05/16 00:11:44;;;;;;;364.38;211.05;;;;;;;20.35;75.90;99910.78;341194;28;6273;-74
2022/05/16 00:11:55;;;;;;;363.90;211.93;;;;;;;20.34;76.11;99903.78;337181;29;945;-74
2022/05/16 00:12:06;;;;;;;359.67;210.13;;;;;;;20.34;76.18;99909.94;338464;29;1462;-74
2022/05/16 00:12:16;;;;;;;357.83;208.20;;;;;;;20.34;76.31;99904.63;337065;29;1479;-74
2022/05/16 00:12:27;;;;;;;357.83;207.32;;;;;;;20.34;76.30;99904.63;335487;29;1229;-74
2022/05/16 00:12:38;;;;;;;358.87;207.67;;;;;;;20.35;76.09;99913.44;338428;29;958;-74
2022/05/16 00:12:49;;;;;;;358.42;205.18;;;;;;;20.35;76.10;99911.63;338423;29;945;-74
2022/05/16 00:13:01;;;;;;;358.23;205.10;;;;;;;20.34;76.00;99903.78;334477;29;1478;-74
2022/05/16 00:13:12;;;;;;;358.67;206.15;;;;;;;20.35;76.11;99908.13;336893;29;1345;-74
2022/05/16 00:13:22;;;;;;;355.52;205.90;;;;;;;20.31;75.94;99909.31;338348;29;1489;-74
2022/05/16 00:13:33;;;;;;;353.83;205.23;;;;;;;20.34;76.27;99911.75;336779;29;1556;-74
2022/05/16 00:13:43;;;;;;;351.23;202.95;;;;;;;20.33;75.91;99907.38;337532;29;1253;-74
2022/05/16 00:13:54;;;;;;;353.27;203.67;;;;;;;20.31;75.98;99904.00;341158;29;826;-74
2022/05/16 00:14:04;;;;;;;353.73;204.60;;;;;;;20.30;76.06;99907.63;337201;29;1482;-74
2022/05/16 00:14:15;;;;;;;356.15;205.75;;;;;;;20.32;76.05;99908.34;339751;29;1356;-74
2022/05/16 00:14:25;;;;;;;357.00;206.47;;;;;;;20.31;76.08;99909.31;342275;28;1837;-74
2022/05/16 00:14:37;;;;;;;358.25;205.88;;;;;;;20.32;76.02;99913.66;340861;29;1314;-74
2022/05/16 00:14:47;;;;;;;357.70;206.77;;;;;;;20.31;76.00;99904.00;337245;29;895;-74
2022/05/16 00:14:57;;;;;;;356.73;207.20;;;;;;;20.34;75.99;99914.41;340965;29;1318;-74
2022/05/16 00:15:09;;;;;;;358.75;208.18;;;;;;;20.33;76.23;99907.38;338523;29;989;-74
2022/05/16 00:15:20;;;;;;;362.45;209.88;;;;;;;20.31;75.92;99910.16;337009;29;1582;-74
2022/05/16 00:15:30;;;;;;;363.02;210.05;;;;;;;20.32;76.08;99913.66;337129;29;1399;-74
2022/05/16 00:15:41;;;;;;;360.73;207.20;;;;;;;20.29;76.08;99906.78;338480;29;981;-74
2022/05/16 00:15:51;;;;;;;360.03;206.87;;;;;;;20.29;76.30;99905.94;339678;29;1199;-73
2022/05/16 00:16:02;;;;;;;359.67;207.93;;;;;;;20.27;76.17;99904.22;337117;29;1508;-74
2022/05/16 00:16:13;;;;;;;359.42;209.00;;;;;;;20.29;76.16;99911.25;333771;29;2433;-74
2022/05/16 00:16:23;;;;;;;360.33;208.77;;;;;;;20.27;76.16;99909.56;339046;29;1660;-74
2022/05/16 00:16:34;;;;;;;360.17;210.00;;;;;;;20.26;76.25;99913.16;338378;29;1340;-74
2022/05/16 00:16:44;;;;;;;359.88;208.93;;;;;;;20.25;76.21;99900.84;333242;29;965;-74
2022/05/16 00:16:55;;;;;;;357.97;207.47;;;;;;;20.26;76.12;99910.50;338504;29;1312;-74
2022/05/16 00:17:05;;;;;;;356.20;204.63;;;;;;;20.25;76.24;99910.63;338458;29;996;-74
2022/05/16 00:17:16;;;;;;;357.35;206.50;;;;;;;20.24;76.07;99908.94;340688;29;1284;-74
2022/05/16 00:17:26;;;;;;;358.27;208.10;;;;;;;20.25;76.26;99911.47;337203;29;933;-74
2022/05/16 00:17:37;;;;;;;357.20;207.40;;;;;;;20.25;76.32;99913.28;338505;29;790;-74
2022/05/16 00:17:47;;;;;;;356.80;207.75;;;;;;;20.25;76.11;99911.47;341958;28;1553;-74
2022/05/16 00:17:58;;;;;;;358.83;205.17;;;;;;;20.29;76.42;99911.25;341098;29;901;-74
2022/05/16 00:18:08;;;;;;;358.48;203.77;;;;;;;20.24;76.31;99899.16;338440;29;1632;-74
2022/05/16 00:18:19;;;;;;;357.20;202.73;;;;;;;20.24;76.33;99909.78;336545;29;1223;-74
2022/05/16 00:18:29;;;;;;;354.80;201.63;;;;;;;20.25;76.32;99919.44;337128;29;1884;-74
2022/05/16 00:18:39;;;;;;;354.43;204.43;;;;;;;20.27;76.43;99911.38;338241;29;1198;-74
2022/05/16 00:18:51;;;;;;;357.30;205.10;;;;;;;20.28;76.22;99915.72;335932;29;906;-74
2022/05/16 00:19:01;;;;;;;357.95;207.82;;;;;;;20.30;76.12;99908.47;338974;29;1305;-74
2022/05/16 00:19:12;;;;;;;358.90;205.00;;;;;;;20.30;75.65;99915.59;337161;29;1277;-74
2022/05/16 00:19:22;;;;;;;356.35;205.43;;;;;;;20.25;75.99;99911.47;339106;29;1417;-74
2022/05/16 00:19:32;;;;;;;355.90;202.00;;;;;;;20.23;76.10;99902.78;341032;29;1228;-74
2022/05/16 00:19:43;;;;;;;356.20;202.48;;;;;;;20.21;76.27;99915.34;339854;29;1090;-74
2022/05/16 00:19:53;;;;;;;358.00;204.13;;;;;;;20.16;76.44;99909.50;338445;29;1132;-74
2022/05/16 00:20:04;;;;;;;359.13;208.73;;;;;;;20.16;76.30;99906.84;337083;29;878;-74
2022/05/16 00:20:15;;;;;;;357.27;209.60;;;;;;;20.13;76.46;99909.75;337298;29;4421;-74
2022/05/16 00:20:25;;;;;;;355.93;210.47;;;;;;;20.12;76.33;99908.06;338597;29;6119;-74
2022/05/16 00:20:36;;;;;;;356.33;209.43;;;;;;;20.11;76.34;99916.97;336307;29;1962;-74
2022/05/16 00:20:46;;;;;;;362.03;212.47;;;;;;;20.07;76.31;99907.53;334181;29;1811;-74
2022/05/16 00:20:57;;;;;;;363.35;209.70;;;;;;;20.09;76.60;99905.63;338399;29;6111;-74
2022/05/16 00:21:07;;;;;;;364.53;209.47;;;;;;;20.11;76.37;99916.13;337288;29;1769;-74
2022/05/16 00:21:19;;;;;;;362.88;207.65;;;;;;;20.10;76.24;99909.97;337327;29;1251;-74
2022/05/16 00:21:29;;;;;;;362.20;208.63;;;;;;;20.13;76.33;99907.09;339040;29;1657;-74
2022/05/16 00:21:39;;;;;;;362.02;206.45;;;;;;;20.12;76.40;99910.72;338421;29;1255;-74
2022/05/16 00:21:50;;;;;;;361.07;204.63;;;;;;;20.12;76.57;99905.38;335759;29;1309;-74
2022/05/16 00:22:00;;;;;;;361.57;205.30;;;;;;;20.14;76.23;99913.25;337738;29;1446;-74
2022/05/16 00:22:10;;;;;;;360.27;206.30;;;;;;;20.16;76.17;99916.63;338414;29;997;-74
2022/05/16 00:22:25;;;;;;;358.50;207.17;;;;;;;20.16;76.45;99912.16;339771;29;1210;-74
2022/05/16 00:22:36;;;;;;;357.73;206.93;;;;;;;20.14;76.18;99910.59;337200;29;834;-75
2022/05/16 00:22:46;;;;;;;358.70;207.53;;;;;;;20.15;76.41;99914.94;338337;29;1172;-74
2022/05/16 00:22:56;;;;;;;358.37;207.77;;;;;;;20.15;76.29;99915.78;338402;29;1698;-74
2022/05/16 00:23:07;;;;;;;358.00;206.40;;;;;;;20.14;76.36;99908.78;336951;29;1346;-74
2022/05/16 00:23:17;;;;;;;356.65;204.65;;;;;;;20.17;76.39;99907.72;339872;29;803;-74
2022/05/16 00:23:28;;;;;;;356.13;204.90;;;;;;;20.15;76.69;99906.97;338404;29;2626;-74
2022/05/16 00:23:39;;;;;;;358.13;205.70;;;;;;;20.13;76.40;99912.41;337870;29;1526;-73
2022/05/16 00:23:49;;;;;;;358.60;206.02;;;;;;;20.12;76.51;99905.38;338491;29;859;-73
2022/05/16 00:23:59;;;;;;;358.10;206.13;;;;;;;20.09;76.56;99900.31;337149;29;861;-73
2022/05/16 00:24:10;;;;;;;357.50;205.18;;;;;;;20.07;76.62;99904.88;338501;29;966;-73
2022/05/16 00:24:24;;;;;;;358.13;203.10;;;;;;;20.08;76.87;99909.25;339740;29;1190;-74
2022/05/16 00:24:34;;;;;;;361.92;204.25;;;;;;;20.07;76.92;99912.88;338281;29;1301;-74
2022/05/16 00:24:45;;;;;;;361.50;207.18;;;;;;;20.06;76.76;99905.00;339760;29;901;-74
2022/05/16 00:24:55;;;;;;;360.60;207.20;;;;;;;20.10;76.87;99909.13;338385;29;1102;-73
2022/05/16 00:25:07;;;;;;;356.23;208.03;;;;;;;20.09;76.66;99908.28;337204;29;1196;-73
2022/05/16 00:25:17;;;;;;;354.58;205.70;;;;;;;20.09;76.62;99910.94;341361;28;902;-73
2022/05/16 00:25:28;;;;;;;353.10;203.20;;;;;;;20.08;76.88;99906.59;339809;29;1908;-76
2022/05/16 00:25:38;;;;;;;354.20;202.33;;;;;;;20.09;76.42;99904.78;337944;29;948;-74
2022/05/16 00:25:49;;;;;;;355.77;204.60;;;;;;;20.08;76.98;99913.72;339599;29;1832;-73
2022/05/16 00:25:59;;;;;;;358.07;207.77;;;;;;;20.09;76.58;99916.25;338887;29;1416;-74
2022/05/16 00:26:09;;;;;;;357.70;205.68;;;;;;;20.10;76.64;99909.97;339805;29;896;-74
2022/05/16 00:26:20;;;;;;;354.90;203.80;;;;;;;20.11;76.33;99905.50;337154;29;1093;-74
2022/05/16 00:26:30;;;;;;;352.60;201.60;;;;;;;20.11;76.41;99909.00;337211;29;1260;-75
2022/05/16 00:26:41;;;;;;;353.05;202.95;;;;;;;20.10;76.56;99902.00;337060;29;1512;-74
2022/05/16 00:26:56;;;;;;;354.73;203.57;;;;;;;20.11;76.76;99909.00;335694;29;1325;-75
2022/05/16 00:27:08;;;;;;;353.58;201.13;;;;;;;20.09;76.58;99907.44;337169;29;1150;-75
2022/05/16 00:27:18;;;;;;;351.55;195.82;;;;;;;20.08;76.57;99906.59;337158;29;898;-75
2022/05/16 00:27:34;;;;;;;352.40;196.67;;;;;;;20.07;76.62;99907.53;337170;29;1271;-75
2022/05/16 00:27:44;;;;;;;356.10;201.52;;;;;;;20.04;76.69;99906.94;337003;29;2357;-75
2022/05/16 00:27:54;;;;;;;356.35;203.48;;;;;;;20.02;76.59;99907.03;338394;29;1025;-75
2022/05/16 00:28:05;;;;;;;357.63;204.80;;;;;;;20.00;76.91;99903.66;338529;29;937;-75
2022/05/16 00:28:15;;;;;;;359.42;206.90;;;;;;;19.98;77.08;99910.88;335633;29;1354;-75
2022/05/16 00:28:26;;;;;;;358.90;206.00;;;;;;;19.98;76.90;99904.72;336983;29;1440;-75
2022/05/16 00:28:36;;;;;;;359.55;207.10;;;;;;;20.01;76.91;99912.47;336980;29;1526;-75
2022/05/16 00:28:46;;;;;;;358.97;205.03;;;;;;;20.02;76.91;99914.16;338021;29;803;-75
2022/05/16 00:28:57;;;;;;;359.20;205.43;;;;;;;20.00;77.25;99911.63;338341;29;1360;-75
2022/05/16 00:29:08;;;;;;;359.10;204.23;;;;;;;20.01;77.01;99902.69;338413;29;1292;-75
2022/05/16 00:29:19;;;;;;;362.58;206.38;;;;;;;19.99;77.11;99909.94;338484;29;1226;-75
2022/05/16 00:29:30;;;;;;;364.10;209.45;;;;;;;19.98;76.81;99908.22;336258;29;5366;-75
2022/05/16 00:29:40;;;;;;;364.90;209.98;;;;;;;20.00;77.34;99911.63;338553;29;3758;-75
2022/05/16 00:29:50;;;;;;;362.53;208.77;;;;;;;20.01;77.21;99913.31;337186;29;1570;-75
2022/05/16 00:30:05;;;;;;;360.08;204.45;;;;;;;20.00;76.92;99908.97;337302;29;2042;-75
2022/05/16 00:30:18;;;;;;;356.10;204.88;;;;;;;19.97;77.06;99911.00;338786;29;1334;-75
2022/05/16 00:30:29;;;;;;;356.45;206.43;;;;;;;19.97;77.26;99911.84;338451;29;971;-75
2022/05/16 00:30:40;;;;;;;359.48;210.95;;;;;;;19.94;77.02;99904.97;337703;29;2101;-74
2022/05/16 00:30:50;;;;;;;357.88;206.70;;;;;;;19.97;77.18;99911.84;336063;29;1282;-74
2022/05/16 00:31:00;;;;;;;357.03;205.10;;;;;;;19.97;77.36;99906.53;337059;29;1297;-74
2022/05/16 00:31:11;;;;;;;356.20;204.75;;;;;;;19.98;77.07;99907.38;337278;29;1220;-74
2022/05/16 00:31:21;;;;;;;355.90;205.73;;;;;;;19.99;77.07;99909.94;338313;29;1802;-74
2022/05/16 00:31:32;;;;;;;356.43;206.03;;;;;;;19.99;76.70;99909.94;338437;29;1356;-74
2022/05/16 00:31:42;;;;;;;356.38;205.45;;;;;;;19.93;77.20;99907.72;337432;29;942;-74
2022/05/16 00:31:54;;;;;;;359.27;205.93;;;;;;;19.86;77.32;99910.03;337095;29;1249;-74
2022/05/16 00:32:05;;;;;;;360.30;206.02;;;;;;;19.87;77.30;99916.19;335792;29;1415;-74
2022/05/16 00:32:17;;;;;;;359.23;204.07;;;;;;;19.84;77.45;99905.78;339682;29;1201;-74
2022/05/16 00:32:27;;;;;;;358.45;206.52;;;;;;;19.82;77.55;99907.72;337110;29;1325;-74
2022/05/16 00:32:37;;;;;;;359.23;206.10;;;;;;;19.83;77.62;99912.06;337051;29;1704;-74
2022/05/16 00:32:48;;;;;;;361.70;205.90;;;;;;;19.82;77.57;99913.88;338426;29;1336;-74
2022/05/16 00:32:59;;;;;;;361.60;205.63;;;;;;;19.82;77.40;99907.72;339613;29;1447;-74
2022/05/16 00:33:09;;;;;;;359.67;205.30;;;;;;;19.84;77.43;99906.63;337117;29;1496;-74
2022/05/16 00:33:19;;;;;;;356.67;205.18;;;;;;;19.85;77.26;99907.47;337102;29;1041;-74
2022/05/16 00:33:30;;;;;;;358.80;205.23;;;;;;;19.85;77.48;99908.31;334719;29;2258;-74
2022/05/16 00:33:41;;;;;;;361.92;207.75;;;;;;;19.88;77.16;99907.25;337264;29;1409;-74
2022/05/16 00:33:52;;;;;;;362.73;209.50;;;;;;;19.89;77.15;99908.94;339615;29;1315;-75
2022/05/16 00:34:04;;;;;;;361.30;208.98;;;;;;;19.87;77.36;99905.56;339251;29;1324;-76
2022/05/16 00:34:14;;;;;;;359.30;208.00;;;;;;;19.91;77.27;99912.34;335845;29;870;-75
2022/05/16 00:34:25;;;;;;;361.02;205.48;;;;;;;19.91;76.95;99907.03;338433;29;1323;-76
2022/05/16 00:34:36;;;;;;;360.40;204.05;;;;;;;19.91;76.98;99912.34;338287;29;1574;-75
2022/05/16 00:34:47;;;;;;;361.92;203.48;;;;;;;19.91;77.09;99910.53;338443;29;911;-75
2022/05/16 00:34:57;;;;;;;361.38;205.25;;;;;;;19.92;77.01;99908.72;337241;29;1496;-76
2022/05/16 00:35:08;;;;;;;362.77;206.23;;;;;;;19.92;77.13;99908.72;335784;29;1028;-75
2022/05/16 00:35:20;;;;;;;359.73;203.70;;;;;;;19.91;76.74;99904.38;339579;29;1956;-75
2022/05/16 00:35:30;;;;;;;357.83;202.15;;;;;;;19.92;76.82;99909.56;336823;29;1392;-75
2022/05/16 00:35:41;;;;;;;357.33;203.43;;;;;;;19.92;76.65;99908.72;335426;29;1238;-75
2022/05/16 00:35:51;;;;;;;356.80;206.02;;;;;;;19.92;76.88;99912.22;337151;29;907;-75
2022/05/16 00:36:02;;;;;;;357.23;205.47;;;;;;;19.91;76.76;99913.19;337573;29;1558;-75
2022/05/16 00:36:12;;;;;;;357.52;204.30;;;;;;;19.90;76.88;99910.66;338450;29;1259;-75
2022/05/16 00:36:23;;;;;;;356.70;201.60;;;;;;;19.90;76.72;99905.34;338514;29;961;-76
2022/05/16 00:36:33;;;;;;;354.83;201.52;;;;;;;19.90;76.76;99906.19;339740;29;1263;-76
2022/05/16 00:36:47;;;;;;;355.53;200.73;;;;;;;19.89;76.67;99915.09;339670;29;1194;-75
2022/05/16 00:36:57;;;;;;;357.70;202.40;;;;;;;19.87;76.80;99908.22;337026;29;1359;-75
2022/05/16 00:37:07;;;;;;;358.37;204.13;;;;;;;19.87;76.78;99910.88;335941;29;916;-75
2022/05/16 00:37:18;;;;;;;356.48;204.93;;;;;;;19.86;76.62;99910.03;334519;29;1358;-75
2022/05/16 00:37:28;;;;;;;356.07;206.60;;;;;;;19.87;76.54;99916.19;335786;29;1586;-75
2022/05/16 00:37:39;;;;;;;355.67;206.82;;;;;;;19.85;76.77;99918.09;337120;29;1316;-75
2022/05/16 00:37:49;;;;;;;357.47;207.80;;;;;;;19.84;77.15;99911.09;336954;29;2897;-75
2022/05/16 00:37:59;;;;;;;357.10;205.13;;;;;;;19.82;76.74;99910.38;338416;29;1346;-75
2022/05/16 00:38:10;;;;;;;357.67;204.75;;;;;;;19.82;76.84;99913.03;339805;29;1479;-75
2022/05/16 00:38:20;;;;;;;360.93;203.77;;;;;;;19.81;76.82;99912.16;338288;29;1199;-75
2022/05/16 00:38:31;;;;;;;360.45;204.23;;;;;;;19.82;76.69;99907.72;338246;29;1866;-75
2022/05/16 00:38:41;;;;;;;360.13;205.00;;;;;;;19.84;76.80;99916.41;334595;29;5830;-74
2022/05/16 00:38:54;;;;;;;357.35;207.70;;;;;;;19.84;77.30;99911.09;335794;29;5987;-75
2022/05/16 00:39:04;;;;;;;359.45;206.80;;;;;;;19.82;76.87;99913.03;336834;29;1903;-75
2022/05/16 00:39:18;;;;;;;362.00;206.57;;;;;;;19.79;76.84;99908.78;337072;29;2640;-75
2022/05/16 00:39:28;;;;;;;365.08;205.63;;;;;;;19.78;76.99;99907.09;338304;29;1356;-75
2022/05/16 00:39:39;;;;;;;363.07;203.70;;;;;;;19.77;77.15;99920.47;334633;29;1330;-75
2022/05/16 00:39:49;;;;;;;363.20;202.10;;;;;;;19.71;77.22;99905.00;335703;29;1233;-75
2022/05/16 00:40:00;;;;;;;363.47;200.37;;;;;;;19.74;77.01;99910.06;338412;29;926;-75
2022/05/16 00:40:11;;;;;;;362.23;200.27;;;;;;;19.74;77.17;99904.78;336781;29;2410;-75
2022/05/16 00:40:21;;;;;;;362.30;203.80;;;;;;;19.73;77.07;99911.88;338309;29;1766;-75
2022/05/16 00:40:32;;;;;;;364.10;206.73;;;;;;;19.71;77.16;99912.97;336840;29;1228;-75
2022/05/16 00:40:42;;;;;;;362.83;205.82;;;;;;;19.73;77.26;99908.38;342388;28;1193;-75
2022/05/16 00:40:53;;;;;;;361.17;202.77;;;;;;;19.73;77.35;99913.69;339632;29;1680;-75
2022/05/16 00:41:03;;;;;;;358.92;201.20;;;;;;;19.70;77.01;99906.81;337143;29;1055;-75
2022/05/16 00:41:15;;;;;;;359.17;203.57;;;;;;;19.75;77.10;99911.78;337068;29;1303;-75
2022/05/16 00:41:25;;;;;;;359.85;204.32;;;;;;;19.76;77.08;99910.81;337040;29;1418;-75
2022/05/16 00:41:36;;;;;;;360.15;202.93;;;;;;;19.75;76.90;99909.97;335803;29;899;-74
2022/05/16 00:41:47;;;;;;;360.30;201.07;;;;;;;19.74;77.30;99915.41;336939;29;2292;-74
2022/05/16 00:41:57;;;;;;;360.77;200.55;;;;;;;19.72;77.24;99912.84;340953;29;1294;-74
2022/05/16 00:42:11;;;;;;;358.98;202.05;;;;;;;19.71;77.31;99915.63;339158;29;1459;-74
2022/05/16 00:42:22;;;;;;;357.90;203.48;;;;;;;19.72;77.05;99912.00;337170;29;1177;-74
2022/05/16 00:42:32;;;;;;;358.83;203.73;;;;;;;19.71;77.14;99910.31;337232;29;874;-74
2022/05/16 00:42:42;;;;;;;356.77;199.07;;;;;;;19.67;77.50;99915.00;337179;29;1113;-75
2022/05/16 00:43:04;;;;;;;355.30;196.00;;;;;;;19.69;77.47;99917.53;338389;29;1219;-75
2022/05/16 00:43:34;;;;;;;353.13;194.98;;;;;;;19.69;77.31;99912.22;335552;29;1131;-75
2022/05/16 00:43:46;;;;;;;354.58;193.77;;;;;;;19.64;77.52;99906.41;336862;29;1254;-75
2022/05/16 00:43:58;;;;;;;353.50;192.23;;;;;;;19.62;77.56;99911.81;335901;29;1430;-75
2022/05/16 00:44:08;;;;;;;355.08;195.88;;;;;;;19.61;77.60;99910.13;335852;29;939;-75
2022/05/16 00:44:19;;;;;;;355.97;197.53;;;;;;;19.60;78.02;99914.59;339728;29;842;-75
2022/05/16 00:44:30;;;;;;;357.38;201.27;;;;;;;19.58;77.66;99911.19;339345;28;1379;-75
2022/05/16 00:44:40;;;;;;;359.00;204.03;;;;;;;19.59;77.70;99912.91;338416;29;1212;-75
2022/05/16 00:44:51;;;;;;;361.42;204.10;;;;;;;19.59;77.99;99918.22;340993;28;1241;-75
2022/05/16 00:45:02;;;;;;;363.37;203.80;;;;;;;19.59;77.94;99912.03;336579;29;2079;-74
2022/05/16 00:45:14;;;;;;;364.15;205.80;;;;;;;19.57;77.73;99906.84;338333;29;1387;-74
2022/05/16 00:45:24;;;;;;;362.38;203.68;;;;;;;19.57;77.89;99904.19;337493;29;1985;-74
2022/05/16 00:45:35;;;;;;;363.15;203.68;;;;;;;19.58;77.83;99907.69;340321;29;1109;-75
2022/05/16 00:45:45;;;;;;;363.35;204.35;;;;;;;19.58;77.76;99905.88;340465;28;1199;-75
2022/05/16 00:45:56;;;;;;;363.77;205.77;;;;;;;19.60;77.74;99914.59;342414;28;1418;-75
2022/05/16 00:46:06;;;;;;;364.27;205.90;;;;;;;19.60;77.78;99911.94;339991;29;1364;-75
2022/05/16 00:46:17;;;;;;;363.97;204.37;;;;;;;19.60;78.19;99908.44;338363;29;1197;-75
2022/05/16 00:46:29;;;;;;;361.65;200.35;;;;;;;19.60;78.01;99909.28;338404;29;1268;-75
2022/05/16 00:46:40;;;;;;;357.05;199.95;;;;;;;19.61;77.79;99912.78;337093;29;1403;-74
2022/05/16 00:46:50;;;;;;;357.30;202.75;;;;;;;19.58;77.90;99905.88;338397;29;884;-76
2022/05/16 00:47:02;;;;;;;358.73;204.33;;;;;;;19.56;78.06;99917.59;341590;28;1649;-75
2022/05/16 00:47:12;;;;;;;359.15;202.25;;;;;;;19.55;78.49;99906.13;339699;29;1226;-75
2022/05/16 00:47:23;;;;;;;357.47;203.10;;;;;;;19.56;78.27;99917.59;337246;29;874;-75
2022/05/16 00:47:33;;;;;;;359.63;205.40;;;;;;;19.52;78.42;99916.97;338464;29;1473;-75
2022/05/16 00:47:43;;;;;;;358.77;204.57;;;;;;;19.50;78.20;99910.03;339755;29;1197;-75
2022/05/16 00:47:54;;;;;;;358.55;203.68;;;;;;;19.47;78.51;99913.78;336673;29;6528;-75
2022/05/16 00:48:05;;;;;;;360.53;204.90;;;;;;;19.47;78.14;99919.09;336240;29;6209;-75
2022/05/16 00:48:15;;;;;;;362.63;205.40;;;;;;;19.47;78.47;99916.44;336920;29;1210;-75
2022/05/16 00:48:27;;;;;;;362.93;204.57;;;;;;;19.46;78.76;99917.41;336828;29;1809;-75
2022/05/16 00:48:37;;;;;;;357.50;198.57;;;;;;;19.43;78.81;99914.13;339210;29;1316;-75
2022/05/16 00:48:48;;;;;;;355.67;197.30;;;;;;;19.41;78.76;99906.25;339720;29;968;-75
2022/05/16 00:49:00;;;;;;;359.37;200.13;;;;;;;19.42;78.44;99915.94;337041;29;985;-75
2022/05/16 00:49:31;;;;;;;358.55;202.25;;;;;;;19.43;78.88;99912.31;340938;29;1379;-75
2022/05/16 00:49:43;;;;;;;354.90;200.25;;;;;;;19.42;78.54;99905.31;339198;29;1471;-75
2022/05/16 00:49:54;;;;;;;355.63;201.05;;;;;;;19.41;78.48;99914.22;341450;28;2119;-75
2022/05/16 00:50:06;;;;;;;359.08;202.68;;;;;;;19.41;78.78;99903.59;338323;29;1656;-75
2022/05/16 00:50:17;;;;;;;359.85;202.48;;;;;;;19.40;78.61;99920.50;337909;29;1355;-75
2022/05/16 00:50:27;;;;;;;361.30;201.97;;;;;;;19.41;78.69;99914.22;336812;29;1700;-75